sensor_id;sensor_type;location;lat;lon;timestamp;pressure;altitude;pressure_sealevel;temperature;humidity
56514;BME280;62152;52.078;8.414;2022-12-18T00:01:27;101424.31;;;16.36;56.57
56514;BME280;62152;52.078;8.414;2022-12-18T00:03:59;101423.50;;;16.35;56.50
56514;BME280;62152;52.078;8.414;2022-12-18T00:06:27;101421.09;;;16.34;56.83
56514;BME280;62152;52.078;8.414;2022-12-18T00:08:57;101412.06;;;16.33;56.83
56514;BME280;62152;52.078;8.414;2022-12-18T00:11:26;101421.09;;;16.34;56.85
56514;BME280;62152;52.078;8.414;2022-12-18T00:13:55;101422.19;;;16.33;56.63
56514;BME280;62152;52.078;8.414;2022-12-18T00:16:25;101422.19;;;16.33;56.55
56514;BME280;62152;52.078;8.414;2022-12-18T00:18:54;101424.13;;;16.32;56.92
56514;BME280;62152;52.078;8.414;2022-12-18T00:21:21;101432.34;;;16.32;56.77
56514;BME280;62152;52.078;8.414;2022-12-18T00:23:49;101434.28;;;16.32;56.62
56514;BME280;62152;52.078;8.414;2022-12-18T00:26:25;101446.84;;;16.33;56.84
56514;BME280;62152;52.078;8.414;2022-12-18T00:28:52;101438.94;;;16.31;56.84
56514;BME280;62152;52.078;8.414;2022-12-18T00:31:21;101432.69;;;16.31;56.39
56514;BME280;62152;52.078;8.414;2022-12-18T00:33:48;101432.69;;;16.31;57.00
56514;BME280;62152;52.078;8.414;2022-12-18T00:36:17;101438.94;;;16.31;56.93
56514;BME280;62152;52.078;8.414;2022-12-18T00:38:48;101432.69;;;16.31;56.38
56514;BME280;62152;52.078;8.414;2022-12-18T00:41:16;101428.00;;;16.31;56.93
56514;BME280;62152;52.078;8.414;2022-12-18T00:43:43;101438.16;;;16.31;56.97
56514;BME280;62152;52.078;8.414;2022-12-18T00:46:08;101439.28;;;16.30;56.98
56514;BME280;62152;52.078;8.414;2022-12-18T00:48:34;101436.53;;;16.30;56.70
56514;BME280;62152;52.078;8.414;2022-12-18T00:50:59;101437.69;;;16.29;57.01
56514;BME280;62152;52.078;8.414;2022-12-18T00:53:25;101427.84;;;16.28;56.71
56514;BME280;62152;52.078;8.414;2022-12-18T00:55:51;101431.06;;;16.30;56.83
56514;BME280;62152;52.078;8.414;2022-12-18T00:58:16;101422.06;;;16.29;56.68
56514;BME280;62152;52.078;8.414;2022-12-18T01:00:43;101424.00;;;16.29;56.93
56514;BME280;62152;52.078;8.414;2022-12-18T01:03:10;101434.94;;;16.29;56.82
56514;BME280;62152;52.078;8.414;2022-12-18T01:05:39;101422.38;;;16.28;56.84
56514;BME280;62152;52.078;8.414;2022-12-18T01:08:06;101426.25;;;16.27;56.87
56514;BME280;62152;52.078;8.414;2022-12-18T01:10:32;101428.16;;;16.26;56.81
56514;BME280;62152;52.078;8.414;2022-12-18T01:12:58;101426.25;;;16.27;56.56
56514;BME280;62152;52.078;8.414;2022-12-18T01:15:23;101419.94;;;16.26;56.89
56514;BME280;62152;52.078;8.414;2022-12-18T01:17:52;101414.47;;;16.26;56.74
56514;BME280;62152;52.078;8.414;2022-12-18T01:20:18;101426.25;;;16.27;56.51
56514;BME280;62152;52.078;8.414;2022-12-18T01:22:43;101421.88;;;16.26;56.94
56514;BME280;62152;52.078;8.414;2022-12-18T01:25:09;101421.88;;;16.26;56.94
56514;BME280;62152;52.078;8.414;2022-12-18T01:27:35;101426.56;;;16.25;56.98
56514;BME280;62152;52.078;8.414;2022-12-18T01:30:01;101428.50;;;16.25;56.86
56514;BME280;62152;52.078;8.414;2022-12-18T01:32:29;101432.38;;;16.24;56.73
56514;BME280;62152;52.078;8.414;2022-12-18T01:34:55;101443.31;;;16.24;56.94
56514;BME280;62152;52.078;8.414;2022-12-18T01:37:20;101439.44;;;16.25;56.36
56514;BME280;62152;52.078;8.414;2022-12-18T01:39:46;101435.56;;;16.26;56.53
56514;BME280;62152;52.078;8.414;2022-12-18T01:42:14;101437.84;;;16.24;56.86
56514;BME280;62152;52.078;8.414;2022-12-18T01:45:00;101438.63;;;16.24;56.20
56514;BME280;62152;52.078;8.414;2022-12-18T01:50:16;101433.50;;;16.23;56.95
56514;BME280;62152;52.078;8.414;2022-12-18T01:52:48;101434.63;;;16.22;56.44
56514;BME280;62152;52.078;8.414;2022-12-18T01:55:20;101439.78;;;16.23;56.55
56514;BME280;62152;52.078;8.414;2022-12-18T01:57:52;101431.88;;;16.22;56.73
56514;BME280;62152;52.078;8.414;2022-12-18T02:00:22;101431.88;;;16.22;56.71
56514;BME280;62152;52.078;8.414;2022-12-18T02:02:50;101442.03;;;16.21;56.54
56514;BME280;62152;52.078;8.414;2022-12-18T02:05:29;101447.84;;;16.20;56.95
56514;BME280;62152;52.078;8.414;2022-12-18T02:08:33;101443.97;;;16.21;56.55
56514;BME280;62152;52.078;8.414;2022-12-18T02:11:22;101431.41;;;16.20;56.61
56514;BME280;62152;52.078;8.414;2022-12-18T02:16:49;101438.78;;;16.19;56.62
56514;BME280;62152;52.078;8.414;2022-12-18T02:27:18;101446.19;;;16.19;56.57
56514;BME280;62152;52.078;8.414;2022-12-18T02:29:50;101432.50;;;16.19;56.83
56514;BME280;62152;52.078;8.414;2022-12-18T02:32:27;101428.97;;;16.18;56.90
56514;BME280;62152;52.078;8.414;2022-12-18T02:34:59;101414.50;;;16.18;56.75
56514;BME280;62152;52.078;8.414;2022-12-18T02:37:32;101404.66;;;16.17;56.66
56514;BME280;62152;52.078;8.414;2022-12-18T02:40:03;101410.94;;;16.17;56.54
56514;BME280;62152;52.078;8.414;2022-12-18T02:42:30;101410.94;;;16.17;56.72
56514;BME280;62152;52.078;8.414;2022-12-18T02:44:57;101412.88;;;16.17;56.45
56514;BME280;62152;52.078;8.414;2022-12-18T02:47:29;101408.53;;;16.16;56.85
56514;BME280;62152;52.078;8.414;2022-12-18T02:58:15;101420.63;;;16.14;56.50
56514;BME280;62152;52.078;8.414;2022-12-18T03:00:51;101421.75;;;16.13;56.60
56514;BME280;62152;52.078;8.414;2022-12-18T03:03:38;101424.97;;;16.16;56.46
56514;BME280;62152;52.078;8.414;2022-12-18T03:06:33;101438.97;;;16.14;56.45
56514;BME280;62152;52.078;8.414;2022-12-18T03:09:08;101443.31;;;16.15;56.44
56514;BME280;62152;52.078;8.414;2022-12-18T03:11:41;101433.19;;;16.16;56.51
56514;BME280;62152;52.078;8.414;2022-12-18T03:14:17;101437.03;;;16.14;56.53
56514;BME280;62152;52.078;8.414;2022-12-18T03:16:50;101428.03;;;16.14;56.35
56514;BME280;62152;52.078;8.414;2022-12-18T03:19:23;101420.13;;;16.12;56.56
56514;BME280;62152;52.078;8.414;2022-12-18T03:21:57;101423.69;;;16.13;56.63
56514;BME280;62152;52.078;8.414;2022-12-18T03:24:29;101424.50;;;16.13;56.59
56514;BME280;62152;52.078;8.414;2022-12-18T03:27:11;101428.34;;;16.12;56.50
56514;BME280;62152;52.078;8.414;2022-12-18T03:29:47;101431.91;;;16.13;56.63
56514;BME280;62152;52.078;8.414;2022-12-18T03:32:24;101436.06;;;16.10;56.78
56514;BME280;62152;52.078;8.414;2022-12-18T03:35:00;101436.53;;;16.12;57.01
56514;BME280;62152;52.078;8.414;2022-12-18T03:37:29;101436.53;;;16.12;56.86
56514;BME280;62152;52.078;8.414;2022-12-18T03:39:55;101429.47;;;16.11;56.61
56514;BME280;62152;52.078;8.414;2022-12-18T03:42:29;101427.53;;;16.12;56.76
56514;BME280;62152;52.078;8.414;2022-12-18T03:45:15;101428.66;;;16.11;56.34
56514;BME280;62152;52.078;8.414;2022-12-18T03:48:04;101425.13;;;16.10;56.73
56514;BME280;62152;52.078;8.414;2022-12-18T03:50:49;101426.25;;;16.09;56.49
56514;BME280;62152;52.078;8.414;2022-12-18T03:56:05;101430.59;;;16.10;56.33
56514;BME280;62152;52.078;8.414;2022-12-18T03:58:36;101415.31;;;16.09;56.75
56514;BME280;62152;52.078;8.414;2022-12-18T04:01:08;101419.97;;;16.09;56.65
56514;BME280;62152;52.078;8.414;2022-12-18T04:03:39;101410.97;;;16.08;56.64
56514;BME280;62152;52.078;8.414;2022-12-18T04:06:09;101412.56;;;16.09;56.86
56514;BME280;62152;52.078;8.414;2022-12-18T04:08:36;101408.22;;;16.08;56.38
56514;BME280;62152;52.078;8.414;2022-12-18T04:11:03;101412.56;;;16.09;56.22
56514;BME280;62152;52.078;8.414;2022-12-18T04:13:38;101419.97;;;16.09;56.48
56514;BME280;62152;52.078;8.414;2022-12-18T04:16:04;101426.59;;;16.08;56.50
56514;BME280;62152;52.078;8.414;2022-12-18T04:18:30;101422.25;;;16.07;56.77
56514;BME280;62152;52.078;8.414;2022-12-18T04:20:56;101418.38;;;16.08;56.52
56514;BME280;62152;52.078;8.414;2022-12-18T04:23:22;101424.97;;;16.07;56.92
56514;BME280;62152;52.078;8.414;2022-12-18T04:25:47;101430.44;;;16.07;56.82
56514;BME280;62152;52.078;8.414;2022-12-18T04:28:13;101434.00;;;16.07;56.69
56514;BME280;62152;52.078;8.414;2022-12-18T04:30:39;101431.56;;;16.06;56.60
56514;BME280;62152;52.078;8.414;2022-12-18T04:33:09;101428.84;;;16.06;56.79
56514;BME280;62152;52.078;8.414;2022-12-18T04:35:36;101438.97;;;16.05;56.80
56514;BME280;62152;52.078;8.414;2022-12-18T04:38:01;101437.06;;;16.06;56.47
56514;BME280;62152;52.078;8.414;2022-12-18T04:40:27;101441.69;;;16.05;56.51
56514;BME280;62152;52.078;8.414;2022-12-18T04:42:53;101438.97;;;16.05;56.84
56514;BME280;62152;52.078;8.414;2022-12-18T04:45:18;101446.38;;;16.05;56.82
56514;BME280;62152;52.078;8.414;2022-12-18T04:47:44;101441.69;;;16.05;56.56
56514;BME280;62152;52.078;8.414;2022-12-18T04:50:09;101446.38;;;16.05;56.76
56514;BME280;62152;52.078;8.414;2022-12-18T04:52:35;101451.03;;;16.04;56.73
56514;BME280;62152;52.078;8.414;2022-12-18T04:55:01;101452.63;;;16.05;56.50
56514;BME280;62152;52.078;8.414;2022-12-18T04:57:27;101437.34;;;16.04;56.27
56514;BME280;62152;52.078;8.414;2022-12-18T04:59:52;101436.56;;;16.04;56.35
56514;BME280;62152;52.078;8.414;2022-12-18T05:02:18;101434.63;;;16.04;56.73
56514;BME280;62152;52.078;8.414;2022-12-18T05:04:43;101433.00;;;16.03;56.74
56514;BME280;62152;52.078;8.414;2022-12-18T05:07:09;101433.00;;;16.03;56.77
56514;BME280;62152;52.078;8.414;2022-12-18T05:09:34;101427.53;;;16.03;56.84
56514;BME280;62152;52.078;8.414;2022-12-18T05:12:00;101421.25;;;16.03;56.54
56514;BME280;62152;52.078;8.414;2022-12-18T05:14:26;101409.50;;;16.02;56.62
56514;BME280;62152;52.078;8.414;2022-12-18T05:16:51;101411.44;;;16.02;56.66
56514;BME280;62152;52.078;8.414;2022-12-18T05:19:17;101408.38;;;16.03;56.72
56514;BME280;62152;52.078;8.414;2022-12-18T05:21:42;101414.50;;;16.00;56.87
56514;BME280;62152;52.078;8.414;2022-12-18T05:24:08;101417.72;;;16.02;56.58
56514;BME280;62152;52.078;8.414;2022-12-18T05:26:33;101416.59;;;16.03;56.60
56514;BME280;62152;52.078;8.414;2022-12-18T05:28:59;101412.25;;;16.02;56.71
56514;BME280;62152;52.078;8.414;2022-12-18T05:31:25;101420.47;;;16.02;56.45
56514;BME280;62152;52.078;8.414;2022-12-18T05:33:50;101427.88;;;16.02;56.73
56514;BME280;62152;52.078;8.414;2022-12-18T05:36:16;101429.81;;;16.01;56.34
56514;BME280;62152;52.078;8.414;2022-12-18T05:38:42;101422.72;;;16.00;56.62
56514;BME280;62152;52.078;8.414;2022-12-18T05:41:08;101418.84;;;16.01;56.71
56514;BME280;62152;52.078;8.414;2022-12-18T05:43:36;101424.31;;;16.01;56.72
56514;BME280;62152;52.078;8.414;2022-12-18T05:46:05;101409.84;;;16.01;56.69
56514;BME280;62152;52.078;8.414;2022-12-18T05:48:37;101410.66;;;16.01;56.64
56514;BME280;62152;52.078;8.414;2022-12-18T05:51:05;101398.22;;;16.04;56.71
56514;BME280;62152;52.078;8.414;2022-12-18T05:53:36;101408.84;;;16.05;56.91
56514;BME280;62152;52.078;8.414;2022-12-18T05:56:05;101397.75;;;16.02;56.67
56514;BME280;62152;52.078;8.414;2022-12-18T05:58:33;101400.84;;;16.00;56.89
56514;BME280;62152;52.078;8.414;2022-12-18T06:01:10;101405.16;;;16.01;56.70
56514;BME280;62152;52.078;8.414;2022-12-18T06:03:39;101410.97;;;16.00;56.77
56514;BME280;62152;52.078;8.414;2022-12-18T06:06:16;101425.75;;;15.99;56.93
56514;BME280;62152;52.078;8.414;2022-12-18T06:08:44;101420.59;;;15.97;56.72
56514;BME280;62152;52.078;8.414;2022-12-18T06:11:10;101428.81;;;15.97;57.06
56514;BME280;62152;52.078;8.414;2022-12-18T06:13:37;101428.03;;;15.97;56.52
56514;BME280;62152;52.078;8.414;2022-12-18T06:16:06;101430.28;;;15.95;56.90
56514;BME280;62152;52.078;8.414;2022-12-18T06:18:32;101436.56;;;15.95;56.85
56514;BME280;62152;52.078;8.414;2022-12-18T06:21:00;101438.16;;;15.96;56.46
56514;BME280;62152;52.078;8.414;2022-12-18T06:23:26;101446.69;;;15.95;56.78
56514;BME280;62152;52.078;8.414;2022-12-18T06:25:52;101447.50;;;15.95;56.56
56514;BME280;62152;52.078;8.414;2022-12-18T06:28:17;101449.44;;;15.95;56.47
56514;BME280;62152;52.078;8.414;2022-12-18T06:30:44;101454.09;;;15.94;56.52
56514;BME280;62152;52.078;8.414;2022-12-18T06:33:11;101448.16;;;15.92;56.50
56514;BME280;62152;52.078;8.414;2022-12-18T06:35:36;101452.50;;;15.93;56.74
56514;BME280;62152;52.078;8.414;2022-12-18T06:38:02;101459.91;;;15.93;56.37
56514;BME280;62152;52.078;8.414;2022-12-18T06:40:29;101466.19;;;15.93;56.75
56514;BME280;62152;52.078;8.414;2022-12-18T06:42:55;101459.91;;;15.93;56.63
56514;BME280;62152;52.078;8.414;2022-12-18T06:45:20;101455.53;;;15.92;56.64
56514;BME280;62152;52.078;8.414;2022-12-18T06:47:46;101452.78;;;15.92;56.30
56514;BME280;62152;52.078;8.414;2022-12-18T06:50:12;101460.19;;;15.91;56.78
56514;BME280;62152;52.078;8.414;2022-12-18T06:52:39;101457.47;;;15.91;56.30
56514;BME280;62152;52.078;8.414;2022-12-18T06:55:05;101458.28;;;15.92;56.46
56514;BME280;62152;52.078;8.414;2022-12-18T06:57:32;101456.66;;;15.91;56.66
56514;BME280;62152;52.078;8.414;2022-12-18T06:59:57;101459.91;;;15.93;56.33
56514;BME280;62152;52.078;8.414;2022-12-18T07:02:23;101468.13;;;16.01;55.61
56514;BME280;62152;52.078;8.414;2022-12-18T07:04:49;101476.00;;;16.03;56.15
56514;BME280;62152;52.078;8.414;2022-12-18T07:07:15;101466.50;;;16.00;55.82
56514;BME280;62152;52.078;8.414;2022-12-18T07:09:40;101468.25;;;15.96;56.29
56514;BME280;62152;52.078;8.414;2022-12-18T07:12:06;101470.53;;;15.94;56.30
56514;BME280;62152;52.078;8.414;2022-12-18T07:14:31;101472.47;;;15.94;56.00
56514;BME280;62152;52.078;8.414;2022-12-18T07:16:57;101462.31;;;15.94;55.63
56514;BME280;62152;52.078;8.414;2022-12-18T07:19:23;101465.84;;;15.95;55.98
56514;BME280;62152;52.078;8.414;2022-12-18T07:21:49;101459.56;;;15.94;56.11
56514;BME280;62152;52.078;8.414;2022-12-18T07:24:15;101463.13;;;15.95;55.74
56514;BME280;62152;52.078;8.414;2022-12-18T07:26:41;101450.88;;;15.92;56.07
56514;BME280;62152;52.078;8.414;2022-12-18T07:29:06;101449.25;;;15.91;56.13
56514;BME280;62152;52.078;8.414;2022-12-18T07:31:32;101455.53;;;15.92;56.31
56514;BME280;62152;52.078;8.414;2022-12-18T07:33:58;101457.78;;;15.90;56.00
56514;BME280;62152;52.078;8.414;2022-12-18T07:36:24;101465.38;;;15.93;56.18
56514;BME280;62152;52.078;8.414;2022-12-18T07:38:50;101462.47;;;15.89;56.10
56514;BME280;62152;52.078;8.414;2022-12-18T07:41:16;101463.75;;;15.92;56.04
56514;BME280;62152;52.078;8.414;2022-12-18T07:43:42;101470.03;;;15.92;56.24
56514;BME280;62152;52.078;8.414;2022-12-18T07:46:08;101469.22;;;15.92;55.93
56514;BME280;62152;52.078;8.414;2022-12-18T07:48:35;101469.72;;;15.94;56.47
56514;BME280;62152;52.078;8.414;2022-12-18T07:51:03;101464.38;;;15.97;56.85
56514;BME280;62152;52.078;8.414;2022-12-18T07:53:32;101473.72;;;15.96;56.20
56514;BME280;62152;52.078;8.414;2022-12-18T07:56:00;101467.13;;;15.97;56.60
56514;BME280;62152;52.078;8.414;2022-12-18T07:58:28;101453.78;;;16.04;56.91
56514;BME280;62152;52.078;8.414;2022-12-18T08:01:08;101464.25;;;16.02;57.01
56514;BME280;62152;52.078;8.414;2022-12-18T08:03:36;101469.53;;;15.99;56.71
56514;BME280;62152;52.078;8.414;2022-12-18T08:06:05;101460.84;;;15.97;57.14
56514;BME280;62152;52.078;8.414;2022-12-18T08:08:33;101462.78;;;15.96;56.52
56514;BME280;62152;52.078;8.414;2022-12-18T08:10:59;101460.84;;;15.97;56.71
56514;BME280;62152;52.078;8.414;2022-12-18T08:13:26;101454.91;;;15.95;56.58
56514;BME280;62152;52.078;8.414;2022-12-18T08:16:04;101457.66;;;15.95;56.94
56514;BME280;62152;52.078;8.414;2022-12-18T08:18:36;101456.84;;;15.94;56.79
56514;BME280;62152;52.078;8.414;2022-12-18T08:21:18;101447.81;;;15.94;56.57
56514;BME280;62152;52.078;8.414;2022-12-18T08:23:54;101451.69;;;15.93;56.61
56514;BME280;62152;52.078;8.414;2022-12-18T08:26:23;101439.94;;;15.92;56.83
56514;BME280;62152;52.078;8.414;2022-12-18T08:28:50;101434.94;;;15.94;56.78
56514;BME280;62152;52.078;8.414;2022-12-18T08:31:18;101429.47;;;15.94;56.63
56514;BME280;62152;52.078;8.414;2022-12-18T08:33:44;101427.88;;;15.93;56.55
56514;BME280;62152;52.078;8.414;2022-12-18T08:36:09;101431.41;;;15.94;56.77
56514;BME280;62152;52.078;8.414;2022-12-18T08:38:36;101429.31;;;15.91;56.80
56514;BME280;62152;52.078;8.414;2022-12-18T08:41:08;101441.84;;;15.92;56.57
56514;BME280;62152;52.078;8.414;2022-12-18T08:43:36;101432.53;;;15.93;56.58
56514;BME280;62152;52.078;8.414;2022-12-18T08:46:02;101430.91;;;15.92;56.39
56514;BME280;62152;52.078;8.414;2022-12-18T08:48:28;101441.84;;;15.92;56.59
56514;BME280;62152;52.078;8.414;2022-12-18T08:50:58;101444.91;;;15.90;56.56
56514;BME280;62152;52.078;8.414;2022-12-18T08:53:25;101448.97;;;15.93;56.26
56514;BME280;62152;52.078;8.414;2022-12-18T08:55:52;101441.03;;;15.91;56.23
56514;BME280;62152;52.078;8.414;2022-12-18T08:58:19;101437.84;;;15.89;56.40
56514;BME280;62152;52.078;8.414;2022-12-18T09:00:45;101440.25;;;15.91;56.28
56514;BME280;62152;52.078;8.414;2022-12-18T09:03:15;101432.84;;;15.91;56.32
56514;BME280;62152;52.078;8.414;2022-12-18T09:05:43;101431.75;;;15.92;56.53
56514;BME280;62152;52.078;8.414;2022-12-18T09:08:11;101421.91;;;15.91;56.09
56514;BME280;62152;52.078;8.414;2022-12-18T09:10:44;101431.75;;;15.92;56.34
56514;BME280;62152;52.078;8.414;2022-12-18T09:13:12;101422.22;;;15.90;56.43
56514;BME280;62152;52.078;8.414;2022-12-18T09:15:45;101423.81;;;15.91;56.21
56514;BME280;62152;52.078;8.414;2022-12-18T09:18:14;101423.03;;;15.90;56.03
56514;BME280;62152;52.078;8.414;2022-12-18T09:20:41;101425.75;;;15.90;55.98
56514;BME280;62152;52.078;8.414;2022-12-18T09:23:07;101430.09;;;15.91;56.35
56514;BME280;62152;52.078;8.414;2022-12-18T09:25:35;101440.25;;;15.91;55.95
56514;BME280;62152;52.078;8.414;2022-12-18T09:28:04;101441.03;;;15.91;56.09
56514;BME280;62152;52.078;8.414;2022-12-18T09:30:31;101438.31;;;15.91;56.31
56514;BME280;62152;52.078;8.414;2022-12-18T09:32:57;101432.53;;;15.93;56.09
56514;BME280;62152;52.078;8.414;2022-12-18T09:35:23;101424.63;;;15.91;55.95
56514;BME280;62152;52.078;8.414;2022-12-18T09:37:48;101421.09;;;15.91;56.27
56514;BME280;62152;52.078;8.414;2022-12-18T09:40:18;101421.91;;;15.91;56.40
56514;BME280;62152;52.078;8.414;2022-12-18T09:42:52;101421.75;;;15.88;55.92
56514;BME280;62152;52.078;8.414;2022-12-18T09:45:23;101436.69;;;15.90;56.33
56514;BME280;62152;52.078;8.414;2022-12-18T09:47:52;101441.84;;;15.92;55.89
56514;BME280;62152;52.078;8.414;2022-12-18T09:50:34;101426.88;;;15.89;56.09
56514;BME280;62152;52.078;8.414;2022-12-18T09:53:16;101419.16;;;15.91;56.16
56514;BME280;62152;52.078;8.414;2022-12-18T09:55:48;101430.91;;;15.92;56.23
56514;BME280;62152;52.078;8.414;2022-12-18T09:58:26;101428.50;;;15.90;56.18
56514;BME280;62152;52.078;8.414;2022-12-18T10:00:54;101430.09;;;15.91;56.04
56514;BME280;62152;52.078;8.414;2022-12-18T10:03:21;101428.16;;;15.92;55.97
56514;BME280;62152;52.078;8.414;2022-12-18T10:09:19;101429.81;;;15.93;56.30
56514;BME280;62152;52.078;8.414;2022-12-18T10:18:37;101402.75;;;15.91;56.22
56514;BME280;62152;52.078;8.414;2022-12-18T10:21:34;101395.03;;;15.93;55.68
56514;BME280;62152;52.078;8.414;2022-12-18T10:26:52;101359.75;;;15.92;55.95
56514;BME280;62152;52.078;8.414;2022-12-18T10:29:21;101359.28;;;15.90;55.91
56514;BME280;62152;52.078;8.414;2022-12-18T10:31:47;101361.69;;;15.91;55.94
56514;BME280;62152;52.078;8.414;2022-12-18T10:34:16;101349.66;;;15.92;56.06
56514;BME280;62152;52.078;8.414;2022-12-18T10:36:42;101352.41;;;15.92;55.99
56514;BME280;62152;52.078;8.414;2022-12-18T10:39:20;101344.19;;;15.92;56.10
56514;BME280;62152;52.078;8.414;2022-12-18T10:41:50;101334.34;;;15.91;55.58
56514;BME280;62152;52.078;8.414;2022-12-18T10:44:20;101338.72;;;15.92;55.73
56514;BME280;62152;52.078;8.414;2022-12-18T10:46:55;101349.66;;;15.92;55.96
56514;BME280;62152;52.078;8.414;2022-12-18T10:49:32;101342.53;;;15.91;56.04
56514;BME280;62152;52.078;8.414;2022-12-18T10:52:15;101330.00;;;15.90;55.90
56514;BME280;62152;52.078;8.414;2022-12-18T11:00:00;101322.13;;;15.89;56.02
56514;BME280;62152;52.078;8.414;2022-12-18T11:02:45;101316.00;;;15.92;55.81
56514;BME280;62152;52.078;8.414;2022-12-18T11:05:26;101304.75;;;15.93;55.69
56514;BME280;62152;52.078;8.414;2022-12-18T11:07:57;101300.69;;;15.91;55.88
56514;BME280;62152;52.078;8.414;2022-12-18T11:10:32;101297.97;;;15.91;55.61
56514;BME280;62152;52.078;8.414;2022-12-18T11:13:18;101298.78;;;15.91;55.74
56514;BME280;62152;52.078;8.414;2022-12-18T11:15:47;101288.63;;;15.92;56.04
56514;BME280;62152;52.078;8.414;2022-12-18T11:18:22;101276.88;;;15.91;56.02
56514;BME280;62152;52.078;8.414;2022-12-18T11:20:58;101273.69;;;15.89;55.78
56514;BME280;62152;52.078;8.414;2022-12-18T11:23:37;101275.28;;;15.90;56.04
56514;BME280;62152;52.078;8.414;2022-12-18T11:26:17;101267.56;;;15.92;55.91
56514;BME280;62152;52.078;8.414;2022-12-18T11:28:52;101271.41;;;15.91;55.95
56514;BME280;62152;52.078;8.414;2022-12-18T11:31:32;101260.81;;;15.90;55.88
56514;BME280;62152;52.078;8.414;2022-12-18T11:34:05;101266.75;;;15.92;55.55
56514;BME280;62152;52.078;8.414;2022-12-18T11:36:39;101265.13;;;15.91;55.83
56514;BME280;62152;52.078;8.414;2022-12-18T11:39:49;101265.13;;;15.91;55.82
56514;BME280;62152;52.078;8.414;2022-12-18T11:42:18;101257.72;;;15.91;56.04
56514;BME280;62152;52.078;8.414;2022-12-18T11:45:38;101254.19;;;15.91;55.93
56514;BME280;62152;52.078;8.414;2022-12-18T11:47:56;101247.91;;;15.90;55.95
56514;BME280;62152;52.078;8.414;2022-12-18T11:50:39;101248.72;;;15.91;55.90
56514;BME280;62152;52.078;8.414;2022-12-18T11:53:13;101243.25;;;15.91;55.62
56514;BME280;62152;52.078;8.414;2022-12-18T11:56:05;101247.59;;;15.92;56.02
56514;BME280;62152;52.078;8.414;2022-12-18T12:11:27;101215.88;;;15.91;55.58
56514;BME280;62152;52.078;8.414;2022-12-18T12:17:59;101203.00;;;15.91;56.15
56514;BME280;62152;52.078;8.414;2022-12-18T12:23:57;101202.53;;;15.89;55.73
56514;BME280;62152;52.078;8.414;2022-12-18T12:30:16;101187.72;;;15.90;55.62
56514;BME280;62152;52.078;8.414;2022-12-18T12:38:56;101204.16;;;15.90;55.77
56514;BME280;62152;52.078;8.414;2022-12-18T12:41:27;101206.41;;;15.88;55.77
56514;BME280;62152;52.078;8.414;2022-12-18T12:44:01;101210.28;;;15.87;55.94
56514;BME280;62152;52.078;8.414;2022-12-18T12:46:37;101218.97;;;15.89;55.79
56514;BME280;62152;52.078;8.414;2022-12-18T12:49:15;101213.97;;;15.91;55.61
56514;BME280;62152;52.078;8.414;2022-12-18T12:51:57;101200.59;;;15.90;55.92
56514;BME280;62152;52.078;8.414;2022-12-18T12:54:34;101204.81;;;15.87;55.90
56514;BME280;62152;52.078;8.414;2022-12-18T12:57:23;101205.94;;;15.86;56.36
56514;BME280;62152;52.078;8.414;2022-12-18T13:05:54;101182.78;;;16.51;54.71
56514;BME280;62152;52.078;8.414;2022-12-18T13:08:31;101176.19;;;16.82;54.81
56514;BME280;62152;52.078;8.414;2022-12-18T13:14:03;101159.59;;;16.99;54.01
56514;BME280;62152;52.078;8.414;2022-12-18T13:16:28;101156.84;;;16.99;54.27
56514;BME280;62152;52.078;8.414;2022-12-18T13:18:56;101138.00;;;16.98;54.13
56514;BME280;62152;52.078;8.414;2022-12-18T13:21:29;101144.28;;;16.98;54.48
56514;BME280;62152;52.078;8.414;2022-12-18T13:24:14;101134.03;;;16.95;54.06
56514;BME280;62152;52.078;8.414;2022-12-18T13:26:47;101131.72;;;16.97;54.12
56514;BME280;62152;52.078;8.414;2022-12-18T13:29:40;101123.72;;;16.92;54.46
56514;BME280;62152;52.078;8.414;2022-12-18T13:32:24;101116.19;;;16.89;54.27
56514;BME280;62152;52.078;8.414;2022-12-18T13:37:54;101103.00;;;16.82;54.67
56514;BME280;62152;52.078;8.414;2022-12-18T13:48:33;101119.84;;;16.72;55.25
56514;BME280;62152;52.078;8.414;2022-12-18T13:51:08;101108.53;;;16.74;55.26
56514;BME280;62152;52.078;8.414;2022-12-18T13:53:44;101107.94;;;16.68;55.10
56514;BME280;62152;52.078;8.414;2022-12-18T13:56:26;101098.88;;;16.67;55.61
56514;BME280;62152;52.078;8.414;2022-12-18T13:59:14;101098.44;;;16.65;55.05
56514;BME280;62152;52.078;8.414;2022-12-18T14:02:27;101096.84;;;16.64;55.38
56514;BME280;62152;52.078;8.414;2022-12-18T14:04:47;101097.16;;;16.63;55.46
56514;BME280;62152;52.078;8.414;2022-12-18T14:07:18;101096.22;;;16.59;55.21
56514;BME280;62152;52.078;8.414;2022-12-18T14:09:49;101096.22;;;16.59;55.34
56514;BME280;62152;52.078;8.414;2022-12-18T14:12:24;101093.03;;;16.57;55.41
56514;BME280;62152;52.078;8.414;2022-12-18T14:14:52;101102.72;;;16.54;55.53
56514;BME280;62152;52.078;8.414;2022-12-18T14:17:19;101113.69;;;16.54;55.49
56514;BME280;62152;52.078;8.414;2022-12-18T14:19:47;101104.50;;;16.50;55.45
56514;BME280;62152;52.078;8.414;2022-12-18T14:22:21;101098.22;;;16.50;55.55
56514;BME280;62152;52.078;8.414;2022-12-18T14:25:15;101099.72;;;16.47;55.26
56514;BME280;62152;52.078;8.414;2022-12-18T14:30:37;101076.97;;;16.47;55.28
56514;BME280;62152;52.078;8.414;2022-12-18T14:33:18;101091.34;;;16.44;55.55
56514;BME280;62152;52.078;8.414;2022-12-18T14:35:59;101082.00;;;16.45;56.00
56514;BME280;62152;52.078;8.414;2022-12-18T14:38:34;101083.75;;;16.49;56.36
56514;BME280;62152;52.078;8.414;2022-12-18T14:41:13;101067.97;;;16.46;56.09
56514;BME280;62152;52.078;8.414;2022-12-18T14:43:43;101070.25;;;16.44;55.93
56514;BME280;62152;52.078;8.414;2022-12-18T14:46:27;101071.38;;;16.43;55.79